createdAt,value
2023-03-25T00:01:17.037Z,9.27
2023-03-25T00:03:46.574Z,9.23
2023-03-25T00:06:17.377Z,9.19
2023-03-25T00:08:45.709Z,9.11
2023-03-25T00:11:15.471Z,9.08
2023-03-25T00:13:44.658Z,9.04
2023-03-25T00:16:13.019Z,9.00
2023-03-25T00:18:41.614Z,8.91
2023-03-25T00:21:11.783Z,8.87
2023-03-25T00:23:41.836Z,8.85
2023-03-25T00:26:10.368Z,8.77
2023-03-25T00:28:40.712Z,8.76
2023-03-25T00:31:13.722Z,8.78
2023-03-25T00:33:42.761Z,8.76
2023-03-25T00:36:14.838Z,8.70
2023-03-25T00:38:43.844Z,8.67
2023-03-25T00:41:14.362Z,8.61
2023-03-25T00:43:44.109Z,8.60
2023-03-25T00:46:12.717Z,8.62
2023-03-25T00:48:41.291Z,8.58
2023-03-25T00:51:10.265Z,8.63
2023-03-25T00:53:39.357Z,8.62
2023-03-25T00:56:08.497Z,8.63
2023-03-25T00:58:36.821Z,8.60
2023-03-25T01:01:13.961Z,8.59
2023-03-25T01:03:43.972Z,8.62
2023-03-25T01:06:13.333Z,8.63
2023-03-25T01:08:42.989Z,8.64
2023-03-25T01:11:20.489Z,8.64
2023-03-25T01:13:51.300Z,8.68
2023-03-25T01:16:21.144Z,8.66
2023-03-25T01:18:49.505Z,8.67
2023-03-25T01:21:18.167Z,8.64
2023-03-25T01:23:46.462Z,8.61
2023-03-25T01:26:14.784Z,8.57
2023-03-25T01:28:44.543Z,8.61
2023-03-25T01:31:15.120Z,8.65
2023-03-25T01:33:44.881Z,8.67
2023-03-25T01:36:13.941Z,8.68
2023-03-25T01:38:43.405Z,8.71
2023-03-25T01:41:12.320Z,8.71
2023-03-25T01:43:41.697Z,8.66
2023-03-25T01:46:15.196Z,8.62
2023-03-25T01:48:50.021Z,8.55
2023-03-25T01:51:21.348Z,8.57
2023-03-25T01:53:50.721Z,8.61
2023-03-25T01:56:23.740Z,8.60
2023-03-25T01:58:53.919Z,8.53
2023-03-25T02:01:23.013Z,8.47
2023-03-25T02:04:02.975Z,8.47
2023-03-25T02:06:36.557Z,8.45
2023-03-25T02:09:09.082Z,8.50
2023-03-25T02:11:37.524Z,8.48
2023-03-25T02:14:08.778Z,8.52
2023-03-25T02:16:47.755Z,8.51
2023-03-25T02:19:46.085Z,8.53
2023-03-25T02:22:49.867Z,8.59
2023-03-25T02:25:48.452Z,8.58
2023-03-25T02:28:29.768Z,8.61
2023-03-25T02:31:34.909Z,8.65
2023-03-25T02:34:24.703Z,8.70
2023-03-25T02:37:35.730Z,8.77
2023-03-25T02:40:10.895Z,8.76
2023-03-25T02:42:43.972Z,8.76
2023-03-25T02:45:17.448Z,8.68
2023-03-25T02:47:48.748Z,8.67
2023-03-25T02:50:21.216Z,8.67
2023-03-25T02:52:53.287Z,8.67
2023-03-25T02:55:25.489Z,8.62
2023-03-25T02:57:57.380Z,8.52
2023-03-25T03:00:28.649Z,8.48
2023-03-25T03:03:00.169Z,8.41
2023-03-25T03:05:32.463Z,8.37
2023-03-25T03:08:14.897Z,8.33
2023-03-25T03:10:52.264Z,8.31
2023-03-25T03:13:31.454Z,8.21
2023-03-25T03:16:08.728Z,8.15
2023-03-25T03:18:46.267Z,8.16
2023-03-25T03:21:23.251Z,8.17
2023-03-25T03:23:58.842Z,8.15
2023-03-25T03:26:38.999Z,8.16
2023-03-25T03:29:13.438Z,8.15
2023-03-25T03:31:48.552Z,8.15
2023-03-25T03:34:41.206Z,8.14
2023-03-25T03:37:12.467Z,8.17
2023-03-25T03:39:41.523Z,8.17
2023-03-25T03:42:18.889Z,8.18
2023-03-25T03:44:52.536Z,8.16
2023-03-25T03:47:23.630Z,8.17
2023-03-25T03:49:55.981Z,8.18
2023-03-25T03:52:29.489Z,8.17
2023-03-25T03:55:00.995Z,8.24
2023-03-25T03:57:34.695Z,8.27
2023-03-25T04:00:10.011Z,8.31
2023-03-25T04:02:44.514Z,8.37
2023-03-25T04:05:17.453Z,8.38
2023-03-25T04:07:55.171Z,8.38
2023-03-25T04:10:34.864Z,8.41
2023-03-25T04:13:08.338Z,8.46
2023-03-25T04:15:37.225Z,8.44
2023-03-25T04:18:05.642Z,8.47
2023-03-25T04:20:36.591Z,8.45
2023-03-25T04:23:06.050Z,8.43
2023-03-25T04:25:34.371Z,8.45
2023-03-25T04:28:04.038Z,8.43
2023-03-25T04:30:32.304Z,8.41
2023-03-25T04:33:01.286Z,8.45
2023-03-25T04:35:33.030Z,8.46
2023-03-25T04:38:01.798Z,8.49
2023-03-25T04:40:30.194Z,8.50
2023-03-25T04:42:58.682Z,8.53
2023-03-25T04:45:28.817Z,8.57
2023-03-25T04:47:58.044Z,8.58
2023-03-25T04:50:29.423Z,8.57
2023-03-25T04:53:00.424Z,8.60
2023-03-25T04:55:30.004Z,8.58
2023-03-25T04:57:58.389Z,8.59
2023-03-25T05:00:28.271Z,8.51
2023-03-25T05:02:57.386Z,8.49
2023-03-25T05:05:26.954Z,8.42
2023-03-25T05:07:58.256Z,8.45
2023-03-25T05:10:29.804Z,8.46
2023-03-25T05:13:02.172Z,8.50
2023-03-25T05:15:35.791Z,8.51
2023-03-25T05:18:04.127Z,8.45
2023-03-25T05:20:35.114Z,8.35
2023-03-25T05:23:03.463Z,8.23
2023-03-25T05:25:34.503Z,8.20
2023-03-25T05:28:05.864Z,8.21
2023-03-25T05:30:39.203Z,8.26
2023-03-25T05:33:07.985Z,8.27
2023-03-25T05:35:36.479Z,8.28
2023-03-25T05:38:04.994Z,8.27
2023-03-25T05:40:33.667Z,8.28
2023-03-25T05:43:03.201Z,8.28
2023-03-25T05:45:31.608Z,8.27
2023-03-25T05:48:01.254Z,8.36
2023-03-25T05:50:29.631Z,8.38
2023-03-25T05:53:00.594Z,8.42
2023-03-25T05:55:29.298Z,8.46
2023-03-25T05:57:58.841Z,8.50
2023-03-25T06:00:27.156Z,8.52
2023-03-25T06:02:55.545Z,8.57
2023-03-25T06:05:25.890Z,8.58
2023-03-25T06:07:56.501Z,8.60
2023-03-25T06:10:25.270Z,8.68
2023-03-25T06:12:54.256Z,8.71
2023-03-25T06:15:33.431Z,8.63
2023-03-25T06:18:02.318Z,8.67
2023-03-25T06:20:33.561Z,8.66
2023-03-25T06:23:03.063Z,8.67
2023-03-25T06:25:31.376Z,8.72
2023-03-25T06:28:03.247Z,8.76
2023-03-25T06:30:31.882Z,8.88
2023-03-25T06:33:02.938Z,8.97
2023-03-25T06:35:33.057Z,9.08
2023-03-25T06:38:01.851Z,9.15
2023-03-25T06:40:47.679Z,9.16
2023-03-25T06:43:16.162Z,9.18
2023-03-25T06:46:08.480Z,9.18
2023-03-25T06:48:59.861Z,9.18
2023-03-25T06:51:29.622Z,9.10
2023-03-25T06:53:58.140Z,9.10
2023-03-25T06:56:26.506Z,9.15
2023-03-25T06:58:54.811Z,9.10
2023-03-25T07:01:23.095Z,9.11
2023-03-25T07:03:51.442Z,9.14
2023-03-25T07:06:22.520Z,9.21
2023-03-25T07:08:52.597Z,9.25
2023-03-25T07:11:26.230Z,9.37
2023-03-25T07:13:54.529Z,9.42
2023-03-25T07:16:23.849Z,9.44
2023-03-25T07:18:52.473Z,9.57
2023-03-25T07:21:20.779Z,9.60
2023-03-25T07:23:49.368Z,9.63
2023-03-25T07:26:19.368Z,9.52
2023-03-25T07:28:48.043Z,9.40
2023-03-25T07:31:17.975Z,9.30
2023-03-25T07:33:46.299Z,9.30
2023-03-25T07:36:14.879Z,9.39
2023-03-25T07:38:44.887Z,9.50
2023-03-25T07:41:14.122Z,9.50
2023-03-25T07:43:56.908Z,9.50
2023-03-25T07:46:32.323Z,9.53
2023-03-25T07:49:01.024Z,9.60
2023-03-25T07:51:30.248Z,9.74
2023-03-25T07:54:05.265Z,9.93
2023-03-25T07:56:34.774Z,9.99
2023-03-25T07:59:04.807Z,10.06
2023-03-25T08:01:33.161Z,10.09
2023-03-25T08:04:01.581Z,10.15
2023-03-25T08:06:29.901Z,10.25
2023-03-25T08:08:58.170Z,10.22
2023-03-25T08:11:26.461Z,10.40
2023-03-25T08:13:54.757Z,10.37
2023-03-25T08:16:24.438Z,10.01
2023-03-25T08:18:53.870Z,9.71
2023-03-25T08:21:25.123Z,9.42
2023-03-25T08:23:54.888Z,8.87
2023-03-25T08:26:23.193Z,8.79
2023-03-25T08:28:51.460Z,8.81
2023-03-25T08:31:20.667Z,8.68
2023-03-25T08:33:50.379Z,8.66
2023-03-25T08:36:23.337Z,8.68
2023-03-25T08:38:52.102Z,8.76
2023-03-25T08:41:20.624Z,8.88
2023-03-25T08:43:49.198Z,8.89
2023-03-25T08:46:17.556Z,9.10
2023-03-25T08:48:46.161Z,9.29
2023-03-25T08:51:16.149Z,9.40
2023-03-25T08:53:44.402Z,9.54
2023-03-25T08:56:12.706Z,9.70
2023-03-25T08:58:41.149Z,9.76
2023-03-25T09:01:09.446Z,9.68
2023-03-25T09:03:38.635Z,9.74
2023-03-25T09:06:08.161Z,9.71
2023-03-25T09:08:38.377Z,9.70
2023-03-25T09:11:07.232Z,9.67
2023-03-25T09:13:35.523Z,9.66
2023-03-25T09:16:03.908Z,9.85
2023-03-25T09:18:33.091Z,10.19
2023-03-25T09:21:01.626Z,10.41
2023-03-25T09:23:30.240Z,10.93
2023-03-25T09:26:03.819Z,11.39
2023-03-25T09:28:32.841Z,11.23
2023-03-25T09:31:01.327Z,11.41
2023-03-25T09:33:29.740Z,11.13
2023-03-25T09:35:58.008Z,11.22
2023-03-25T09:38:26.286Z,11.52
2023-03-25T09:40:54.643Z,11.33
2023-03-25T09:43:35.081Z,10.95
2023-03-25T09:46:04.777Z,11.70
2023-03-25T09:48:38.011Z,11.61
2023-03-25T09:51:08.634Z,11.53
2023-03-25T09:53:44.540Z,11.31
2023-03-25T09:56:16.238Z,10.94
2023-03-25T09:58:48.032Z,11.16
2023-03-25T10:01:27.177Z,11.55
2023-03-25T10:04:09.180Z,11.36
2023-03-25T10:06:42.197Z,11.23
2023-03-25T10:09:27.458Z,11.43
2023-03-25T10:12:03.821Z,11.23
2023-03-25T10:14:42.629Z,11.60
2023-03-25T10:17:18.490Z,11.20
2023-03-25T10:19:59.160Z,10.67
2023-03-25T10:22:30.873Z,10.53
2023-03-25T10:25:02.152Z,10.16
2023-03-25T10:27:35.764Z,10.45
2023-03-25T10:30:13.915Z,11.36
2023-03-25T10:32:45.658Z,11.74
2023-03-25T10:35:20.227Z,11.85
2023-03-25T10:37:51.933Z,11.67
2023-03-25T10:40:27.098Z,11.00
2023-03-25T10:43:14.235Z,10.59
2023-03-25T10:45:44.898Z,10.07
2023-03-25T10:48:16.478Z,9.88
2023-03-25T10:50:45.174Z,9.65
2023-03-25T10:53:21.644Z,10.36
2023-03-25T10:55:53.375Z,11.54
2023-03-25T10:58:21.866Z,12.32
2023-03-25T11:00:51.640Z,12.66
2023-03-25T11:03:26.274Z,12.42
2023-03-25T11:05:55.328Z,12.47
2023-03-25T11:08:25.466Z,12.38
2023-03-25T11:10:57.840Z,12.17
2023-03-25T11:13:27.921Z,11.99
2023-03-25T11:16:00.852Z,12.02
2023-03-25T11:18:32.727Z,12.30
2023-03-25T11:21:05.610Z,12.75
2023-03-25T11:23:35.694Z,13.23
2023-03-25T11:26:08.093Z,13.54
2023-03-25T11:28:40.223Z,13.07
2023-03-25T11:31:16.185Z,13.00
2023-03-25T11:33:46.695Z,12.91
2023-03-25T11:36:24.369Z,12.82
2023-03-25T11:38:57.982Z,13.19
2023-03-25T11:41:31.123Z,13.32
2023-03-25T11:43:59.600Z,13.33
2023-03-25T11:46:29.440Z,13.97
2023-03-25T11:48:57.765Z,13.98
2023-03-25T11:51:29.178Z,13.86
2023-03-25T11:54:00.766Z,13.17
2023-03-25T11:56:34.062Z,12.23
2023-03-25T11:59:03.878Z,10.43
2023-03-25T12:01:42.011Z,9.88
2023-03-25T12:04:15.958Z,10.27
2023-03-25T12:06:57.376Z,10.65
2023-03-25T12:09:28.447Z,10.90
2023-03-25T12:12:28.759Z,11.33
2023-03-25T12:15:07.142Z,11.26
2023-03-25T12:17:47.648Z,11.32
2023-03-25T12:20:27.218Z,11.72
2023-03-25T12:23:03.457Z,11.56
2023-03-25T12:25:54.724Z,11.76
2023-03-25T12:28:44.732Z,12.33
2023-03-25T12:31:29.377Z,12.35
2023-03-25T12:34:10.144Z,12.13
2023-03-25T12:36:53.483Z,12.40
2023-03-25T12:39:43.418Z,12.45
2023-03-25T12:42:26.977Z,12.11
2023-03-25T12:45:13.788Z,12.07
2023-03-25T12:47:45.395Z,12.15
2023-03-25T12:50:27.722Z,12.23
2023-03-25T12:53:01.139Z,12.17
2023-03-25T12:55:46.079Z,12.29
2023-03-25T12:58:31.562Z,11.85
2023-03-25T13:01:05.646Z,11.92
2023-03-25T13:04:03.726Z,12.03
2023-03-25T13:06:41.986Z,12.17
2023-03-25T13:09:14.556Z,12.16
2023-03-25T13:11:46.977Z,12.05
2023-03-25T13:14:20.644Z,12.36
2023-03-25T13:16:52.214Z,12.40
2023-03-25T13:19:24.191Z,12.57
2023-03-25T13:21:57.589Z,12.49
2023-03-25T13:24:31.466Z,12.96
2023-03-25T13:27:01.804Z,12.70
2023-03-25T13:29:34.378Z,12.92
2023-03-25T13:32:09.716Z,13.02
2023-03-25T13:34:45.617Z,14.08
2023-03-25T13:37:20.858Z,15.15
2023-03-25T13:40:00.993Z,14.59
2023-03-25T13:42:40.701Z,14.28
2023-03-25T13:45:18.236Z,14.58
2023-03-25T13:47:51.293Z,14.45
2023-03-25T13:50:26.962Z,14.65
2023-03-25T13:53:02.196Z,14.73
2023-03-25T13:55:36.059Z,14.81
2023-03-25T13:58:36.057Z,15.01
2023-03-25T14:01:43.213Z,15.06
2023-03-25T14:04:41.249Z,15.29
2023-03-25T14:07:43.579Z,15.61
2023-03-25T14:10:31.189Z,15.54
2023-03-25T14:13:03.380Z,15.37
2023-03-25T14:15:35.768Z,15.19
2023-03-25T14:18:05.126Z,14.91
2023-03-25T14:20:36.297Z,14.89
2023-03-25T14:23:07.229Z,14.77
2023-03-25T14:25:40.292Z,14.81
2023-03-25T14:28:13.558Z,14.67
2023-03-25T14:30:43.145Z,14.48
2023-03-25T14:33:13.028Z,14.57
2023-03-25T14:35:52.009Z,14.66
2023-03-25T14:38:25.651Z,14.88
2023-03-25T14:41:02.832Z,14.27
2023-03-25T14:43:35.344Z,13.61
2023-03-25T14:46:18.479Z,13.39
2023-03-25T14:48:51.691Z,13.55
2023-03-25T14:51:41.554Z,13.37
2023-03-25T14:54:22.371Z,13.25
2023-03-25T14:56:57.699Z,13.15
2023-03-25T14:59:31.050Z,13.43
2023-03-25T15:02:17.897Z,13.84
2023-03-25T15:04:57.260Z,13.64
2023-03-25T15:07:46.046Z,13.74
2023-03-25T15:10:23.209Z,13.68
2023-03-25T15:12:57.941Z,13.56
2023-03-25T15:15:33.078Z,13.41
2023-03-25T15:18:01.611Z,13.44
2023-03-25T15:20:37.369Z,13.37
2023-03-25T15:23:33.964Z,13.59
2023-03-25T15:26:03.434Z,15.28
2023-03-25T15:29:05.394Z,16.03
2023-03-25T15:31:48.473Z,14.71
2023-03-25T15:34:28.244Z,13.75
2023-03-25T15:37:30.394Z,14.17
2023-03-25T15:40:16.682Z,14.01
2023-03-25T15:43:07.359Z,13.59
2023-03-25T15:45:58.085Z,13.51
2023-03-25T15:48:39.740Z,13.62
2023-03-25T15:51:38.543Z,13.50
2023-03-25T15:54:32.376Z,13.30
2023-03-25T15:57:04.065Z,13.58
2023-03-25T15:59:41.627Z,13.56
2023-03-25T16:02:19.010Z,13.39
2023-03-25T16:04:49.629Z,13.37
2023-03-25T16:07:21.277Z,13.43
2023-03-25T16:09:51.386Z,13.46
2023-03-25T16:12:25.689Z,13.29
2023-03-25T16:14:54.249Z,12.96
2023-03-25T16:17:32.159Z,12.77
2023-03-25T16:20:05.901Z,12.81
2023-03-25T16:22:37.759Z,12.91
2023-03-25T16:25:14.130Z,13.05
2023-03-25T16:27:45.440Z,13.14
2023-03-25T16:30:27.312Z,13.41
2023-03-25T16:33:06.615Z,13.36
2023-03-25T16:35:38.097Z,13.09
2023-03-25T16:38:07.298Z,13.00
2023-03-25T16:40:40.268Z,13.03
2023-03-25T16:43:14.490Z,12.84
2023-03-25T16:45:44.212Z,12.63
2023-03-25T16:48:17.880Z,12.59
2023-03-25T16:50:47.142Z,12.40
2023-03-25T16:53:19.005Z,12.13
2023-03-25T16:55:50.743Z,12.00
2023-03-25T16:58:22.068Z,11.90
2023-03-25T17:00:52.450Z,11.85
2023-03-25T17:03:42.049Z,11.91
2023-03-25T17:06:22.619Z,11.78
2023-03-25T17:08:54.178Z,11.74
2023-03-25T17:11:23.862Z,11.77
2023-03-25T17:13:56.218Z,11.79
2023-03-25T17:16:27.843Z,11.67
2023-03-25T17:18:57.790Z,11.57
2023-03-25T17:21:30.117Z,11.54
2023-03-25T17:24:01.922Z,11.49
2023-03-25T17:26:34.054Z,11.46
2023-03-25T17:29:06.574Z,11.44
2023-03-25T17:31:38.015Z,11.36
2023-03-25T17:34:11.710Z,11.30
2023-03-25T17:36:42.445Z,11.31
2023-03-25T17:39:18.910Z,11.39
2023-03-25T17:41:47.785Z,11.39
2023-03-25T17:44:17.732Z,11.38
2023-03-25T17:46:46.357Z,11.30
2023-03-25T17:49:18.389Z,11.18
2023-03-25T17:51:47.665Z,11.01
2023-03-25T17:54:15.979Z,10.81
2023-03-25T17:56:44.393Z,10.58
2023-03-25T17:59:19.105Z,10.41
2023-03-25T18:01:50.081Z,10.39
2023-03-25T18:04:22.006Z,10.38
2023-03-25T18:06:51.380Z,10.39
2023-03-25T18:09:21.992Z,10.40
2023-03-25T18:11:53.214Z,10.49
2023-03-25T18:14:21.973Z,10.52
2023-03-25T18:16:50.873Z,10.48
2023-03-25T18:19:22.463Z,10.42
2023-03-25T18:21:50.890Z,10.42
2023-03-25T18:24:19.212Z,10.40
2023-03-25T18:26:48.330Z,10.39
2023-03-25T18:29:20.649Z,10.30
2023-03-25T18:31:49.412Z,10.31
2023-03-25T18:34:17.913Z,10.24
2023-03-25T18:36:49.539Z,10.14
2023-03-25T18:39:18.997Z,10.11
2023-03-25T18:41:47.444Z,10.10
2023-03-25T18:44:16.134Z,10.08
2023-03-25T18:46:44.412Z,10.07
2023-03-25T18:49:14.470Z,10.00
2023-03-25T18:51:43.025Z,9.94
2023-03-25T18:54:12.690Z,9.92
2023-03-25T18:56:42.542Z,9.93
2023-03-25T18:59:11.802Z,9.93
2023-03-25T19:01:40.218Z,9.92
2023-03-25T19:04:09.297Z,9.82
2023-03-25T19:06:40.660Z,9.76
2023-03-25T19:09:10.138Z,9.71
2023-03-25T19:11:39.762Z,9.65
2023-03-25T19:14:08.010Z,9.63
2023-03-25T19:16:36.382Z,9.60
2023-03-25T19:19:05.057Z,9.63
2023-03-25T19:21:33.360Z,9.68
2023-03-25T19:24:01.843Z,9.68
2023-03-25T19:26:30.520Z,9.64
2023-03-25T19:29:00.872Z,9.72
2023-03-25T19:31:30.610Z,9.76
2023-03-25T19:33:58.987Z,9.80
2023-03-25T19:36:27.284Z,9.82
2023-03-25T19:39:05.443Z,9.83
2023-03-25T19:41:34.937Z,9.78
2023-03-25T19:44:04.765Z,9.74
2023-03-25T19:46:33.718Z,9.74
2023-03-25T19:49:02.188Z,9.77
2023-03-25T19:51:30.456Z,9.84
2023-03-25T19:53:58.852Z,9.89
2023-03-25T19:56:27.296Z,9.92
2023-03-25T19:58:55.559Z,9.92
2023-03-25T20:01:25.326Z,9.86
2023-03-25T20:03:53.759Z,9.81
2023-03-25T20:06:22.082Z,9.77
2023-03-25T20:08:50.476Z,9.67
2023-03-25T20:11:18.759Z,9.62
2023-03-25T20:13:47.155Z,9.52
2023-03-25T20:16:15.533Z,9.44
2023-03-25T20:18:46.867Z,9.39
2023-03-25T20:21:15.154Z,9.33
2023-03-25T20:23:43.511Z,9.33
2023-03-25T20:26:11.818Z,9.33
2023-03-25T20:28:40.655Z,9.29
2023-03-25T20:31:18.420Z,9.24
2023-03-25T20:33:48.962Z,9.26
2023-03-25T20:36:17.504Z,9.25
2023-03-25T20:38:56.619Z,9.31
2023-03-25T20:41:26.025Z,9.36
2023-03-25T20:43:54.320Z,9.41
2023-03-25T20:46:25.529Z,9.46
2023-03-25T20:48:55.583Z,9.42
2023-03-25T20:51:24.165Z,9.46
2023-03-25T20:53:52.604Z,9.40
2023-03-25T20:56:21.101Z,9.31
2023-03-25T20:58:49.572Z,9.33
2023-03-25T21:01:18.046Z,9.32
2023-03-25T21:03:46.352Z,9.25
2023-03-25T21:06:24.423Z,9.24
2023-03-25T21:08:55.936Z,9.21
2023-03-25T21:11:24.532Z,9.17
2023-03-25T21:13:52.847Z,9.11
2023-03-25T21:16:21.303Z,9.09
2023-03-25T21:18:50.304Z,9.04
2023-03-25T21:21:20.197Z,9.06
2023-03-25T21:23:49.226Z,9.07
2023-03-25T21:26:17.713Z,9.02
2023-03-25T21:28:46.057Z,9.00
2023-03-25T21:31:18.807Z,8.96
2023-03-25T21:33:49.918Z,8.91
2023-03-25T21:36:23.016Z,8.89
2023-03-25T21:38:52.319Z,8.83
2023-03-25T21:41:20.673Z,8.82
2023-03-25T21:43:49.340Z,8.81
2023-03-25T21:46:17.755Z,8.83
2023-03-25T21:48:48.572Z,8.85
2023-03-25T21:51:16.894Z,8.86
2023-03-25T21:53:46.561Z,8.95
2023-03-25T21:56:17.426Z,8.94
2023-03-25T21:58:47.020Z,8.90
2023-03-25T22:01:19.718Z,8.93
2023-03-25T22:03:48.083Z,8.94
2023-03-25T22:06:20.407Z,8.91
2023-03-25T22:08:50.614Z,8.88
2023-03-25T22:11:20.670Z,8.74
2023-03-25T22:13:50.255Z,8.68
2023-03-25T22:16:20.203Z,8.63
2023-03-25T22:18:49.024Z,8.53
2023-03-25T22:21:19.257Z,8.44
2023-03-25T22:23:51.102Z,8.44
2023-03-25T22:26:19.680Z,8.41
2023-03-25T22:28:50.725Z,8.44
2023-03-25T22:31:20.775Z,8.41
2023-03-25T22:33:50.156Z,8.38
2023-03-25T22:36:18.457Z,8.32
2023-03-25T22:38:51.411Z,8.29
2023-03-25T22:41:20.372Z,8.20
2023-03-25T22:43:49.361Z,8.15
2023-03-25T22:46:17.914Z,8.07
2023-03-25T22:48:46.637Z,8.04
2023-03-25T22:51:16.635Z,7.96
2023-03-25T22:53:45.775Z,7.96
2023-03-25T22:56:15.833Z,7.94
2023-03-25T22:58:44.240Z,7.85
2023-03-25T23:01:20.553Z,7.86
2023-03-25T23:03:49.042Z,7.86
2023-03-25T23:06:17.455Z,7.84
2023-03-25T23:08:45.858Z,7.86
2023-03-25T23:11:17.639Z,7.83
2023-03-25T23:13:48.897Z,7.86
2023-03-25T23:16:19.214Z,7.90
2023-03-25T23:18:48.113Z,7.86
2023-03-25T23:21:18.001Z,7.85
2023-03-25T23:23:52.829Z,7.90
2023-03-25T23:26:26.654Z,8.06
2023-03-25T23:28:56.493Z,8.06
2023-03-25T23:31:29.173Z,8.14
2023-03-25T23:33:59.146Z,8.18
2023-03-25T23:36:29.231Z,8.21
2023-03-25T23:38:58.748Z,8.23
2023-03-25T23:41:29.789Z,8.28
2023-03-25T23:43:58.244Z,8.32
2023-03-25T23:46:27.560Z,8.41
2023-03-25T23:49:02.110Z,8.42
2023-03-25T23:51:34.006Z,8.47
2023-03-25T23:54:02.564Z,8.49
2023-03-25T23:56:32.510Z,8.58
2023-03-25T23:59:01.568Z,8.62
